首页
METAR-TAF:

METAR-TAF

机场 :

Gilmer Municipal Airport (Fox Stephens Field)

Gilmer, 得克萨斯州, 美国

纬度: 32-41-56N, 经度: 094-56-55W, 海拔: 127米

当前天气观测

该预报发布于26分钟前的09:35 UTC
静风
温度 9°C
湿度 100%
气压 1017 hPa
能見度: 4.0公里
阴天层高于300英尺
轻雾

METAR: KJXI 290935Z AUTO 00000KT 2 1/2SM BR OVC003 09/09 A3004 RMK AO2 VIS 1 1/4V5 T00880086

时间: 05:01 (10:01 UTC)


TAF: 丢失

超过4000个机场的气象观测和天气预报(METAR&TAF报告)。

可查询的气象台以黄色和红色小点在地图上表示。

将鼠标移到小点上方,可查看气象台名称。

然后点击查看天气观测和预报。

如需切换地图:点击带黑十字的绿色按钮放大地图;点击带横线的绿色按钮缩小地图;或者点击绿色箭头查看邻近地区的地图。


METAR-TAF: